createdAt,value
2018-06-22T00:00:57.937Z,100.0
2018-06-22T00:01:58.658Z,100.0
2018-06-22T00:02:59.382Z,100.0
2018-06-22T00:04:00.245Z,100.0
2018-06-22T00:05:00.957Z,100.0
2018-06-22T00:06:01.680Z,100.0
2018-06-22T00:07:02.398Z,100.0
2018-06-22T00:08:03.109Z,100.0
2018-06-22T00:09:03.839Z,100.0
2018-06-22T00:10:04.549Z,100.0
2018-06-22T00:11:05.278Z,100.0
2018-06-22T00:12:06.009Z,100.0
2018-06-22T00:13:07.086Z,100.0
2018-06-22T00:14:07.803Z,100.0
2018-06-22T00:15:08.515Z,100.0
2018-06-22T00:16:09.234Z,100.0
2018-06-22T00:17:09.949Z,100.0
2018-06-22T00:18:10.715Z,100.0
2018-06-22T00:19:11.445Z,100.0
2018-06-22T00:20:12.160Z,100.0
2018-06-22T00:21:12.889Z,100.0
2018-06-22T00:22:13.601Z,100.0
2018-06-22T00:23:14.556Z,100.0
2018-06-22T00:24:15.286Z,100.0
2018-06-22T00:25:16.009Z,100.0
2018-06-22T00:26:16.726Z,100.0
2018-06-22T00:27:17.448Z,100.0
2018-06-22T00:28:18.173Z,100.0
2018-06-22T00:29:18.995Z,100.0
2018-06-22T00:30:19.722Z,100.0
2018-06-22T00:31:20.433Z,100.0
2018-06-22T00:32:21.158Z,100.0
2018-06-22T00:33:21.875Z,100.0
2018-06-22T00:34:22.592Z,100.0
2018-06-22T00:35:23.560Z,100.0
2018-06-22T00:36:24.280Z,100.0
2018-06-22T00:37:25.003Z,100.0
2018-06-22T00:38:25.721Z,100.0
2018-06-22T00:39:26.487Z,100.0
2018-06-22T00:40:27.197Z,100.0
2018-06-22T00:41:27.914Z,100.0
2018-06-22T00:42:28.628Z,100.0
2018-06-22T00:43:29.346Z,100.0
2018-06-22T00:44:30.076Z,100.0
2018-06-22T00:45:31.037Z,100.0
2018-06-22T00:46:31.758Z,100.0
2018-06-22T00:47:32.484Z,100.0
2018-06-22T00:48:33.201Z,100.0
2018-06-22T00:49:33.929Z,100.0
2018-06-22T00:50:34.645Z,100.0
2018-06-22T00:51:35.634Z,100.0
2018-06-22T00:52:36.347Z,100.0
2018-06-22T00:53:37.321Z,100.0
2018-06-22T00:54:38.046Z,100.0
2018-06-22T00:55:38.856Z,100.0
2018-06-22T00:56:39.578Z,100.0
2018-06-22T00:57:40.299Z,100.0
2018-06-22T00:58:41.008Z,100.0
2018-06-22T00:59:41.745Z,100.0
2018-06-22T01:00:42.459Z,100.0
2018-06-22T01:01:43.229Z,100.0
2018-06-22T01:02:43.940Z,100.0
2018-06-22T01:03:44.651Z,100.0
2018-06-22T01:04:45.375Z,100.0
2018-06-22T01:05:46.093Z,100.0
2018-06-22T01:06:47.058Z,100.0
2018-06-22T01:07:47.773Z,100.0
2018-06-22T01:08:48.484Z,100.0
2018-06-22T01:09:49.209Z,100.0
2018-06-22T01:10:49.973Z,100.0
2018-06-22T01:11:50.691Z,100.0
2018-06-22T01:12:51.409Z,100.0
2018-06-22T01:13:52.119Z,100.0
2018-06-22T01:14:52.836Z,100.0
2018-06-22T01:15:53.614Z,100.0
2018-06-22T01:16:54.334Z,100.0
2018-06-22T01:17:55.051Z,100.0
2018-06-22T01:18:55.776Z,100.0
2018-06-22T01:19:56.488Z,100.0
2018-06-22T01:20:57.254Z,100.0
2018-06-22T01:21:57.964Z,100.0
2018-06-22T01:22:58.678Z,100.0
2018-06-22T01:23:59.394Z,100.0
2018-06-22T01:25:00.128Z,100.0
2018-06-22T01:26:00.952Z,100.0
2018-06-22T01:27:01.656Z,100.0
2018-06-22T01:28:02.372Z,100.0
2018-06-22T01:29:03.085Z,100.0
2018-06-22T01:30:04.049Z,100.0
2018-06-22T01:31:04.774Z,100.0
2018-06-22T01:32:05.485Z,100.0
2018-06-22T01:33:06.216Z,100.0
2018-06-22T01:34:06.922Z,100.0
2018-06-22T01:35:07.658Z,100.0
2018-06-22T01:36:08.361Z,100.0
2018-06-22T01:37:09.179Z,100.0
2018-06-22T01:38:09.892Z,100.0
2018-06-22T01:39:10.609Z,100.0
2018-06-22T01:40:11.329Z,100.0
2018-06-22T01:41:12.041Z,100.0
2018-06-22T01:42:12.865Z,100.0
2018-06-22T01:43:13.818Z,100.0
2018-06-22T01:44:14.528Z,100.0
2018-06-22T01:45:15.262Z,100.0
2018-06-22T01:46:15.981Z,100.0
2018-06-22T01:47:16.955Z,100.0
2018-06-22T01:48:17.723Z,100.0
2018-06-22T01:49:18.434Z,100.0
2018-06-22T01:50:19.148Z,100.0
2018-06-22T01:51:19.878Z,100.0
2018-06-22T01:52:20.589Z,100.0
2018-06-22T01:53:21.550Z,100.0
2018-06-22T01:54:22.273Z,100.0
2018-06-22T01:55:22.994Z,100.0
2018-06-22T01:56:23.957Z,100.0
2018-06-22T01:57:24.663Z,100.0
2018-06-22T01:58:25.530Z,100.0
2018-06-22T01:59:26.243Z,100.0
2018-06-22T02:00:26.979Z,100.0
2018-06-22T02:01:27.668Z,100.0
2018-06-22T02:02:28.395Z,100.0
2018-06-22T02:03:29.164Z,100.0
2018-06-22T02:04:29.878Z,100.0
2018-06-22T02:05:30.588Z,100.0
2018-06-22T02:06:31.307Z,100.0
2018-06-22T02:07:32.011Z,100.0
2018-06-22T02:08:32.730Z,100.0
2018-06-22T02:09:33.456Z,100.0
2018-06-22T02:10:34.158Z,100.0
2018-06-22T02:11:34.888Z,100.0
2018-06-22T02:12:35.607Z,100.0
2018-06-22T02:13:36.329Z,100.0
2018-06-22T02:14:37.052Z,100.0
2018-06-22T02:15:37.766Z,100.0
2018-06-22T02:16:38.484Z,100.0
2018-06-22T02:17:39.206Z,100.0
2018-06-22T02:18:39.910Z,100.0
2018-06-22T02:19:40.678Z,100.0
2018-06-22T02:20:41.387Z,100.0
2018-06-22T02:21:42.105Z,100.0
2018-06-22T02:22:42.831Z,100.0
2018-06-22T02:23:43.805Z,100.0
2018-06-22T02:24:44.574Z,100.0
2018-06-22T02:25:45.295Z,100.0
2018-06-22T02:26:46.006Z,100.0
2018-06-22T02:27:46.722Z,100.0
2018-06-22T02:28:47.435Z,100.0
2018-06-22T02:29:48.209Z,100.0
2018-06-22T02:30:49.181Z,100.0
2018-06-22T02:31:49.897Z,100.0
2018-06-22T02:32:50.605Z,100.0
2018-06-22T02:33:51.326Z,100.0
2018-06-22T02:34:52.050Z,100.0
2018-06-22T02:35:52.776Z,100.0
2018-06-22T02:36:53.492Z,100.0
2018-06-22T02:37:54.228Z,100.0
2018-06-22T02:38:54.944Z,100.0
2018-06-22T02:39:55.662Z,100.0
2018-06-22T02:40:56.624Z,100.0
2018-06-22T02:41:57.356Z,100.0
2018-06-22T02:42:58.078Z,100.0
2018-06-22T02:43:58.795Z,100.0
2018-06-22T02:44:59.500Z,100.0
2018-06-22T02:46:00.224Z,100.0
2018-06-22T02:47:00.946Z,100.0
2018-06-22T02:48:01.660Z,100.0
2018-06-22T02:49:02.381Z,100.0
2018-06-22T02:50:03.107Z,100.0
2018-06-22T02:51:03.885Z,100.0
2018-06-22T02:52:04.601Z,100.0
2018-06-22T02:53:05.324Z,100.0
2018-06-22T02:54:06.057Z,100.0
2018-06-22T02:55:06.785Z,100.0
2018-06-22T02:56:07.651Z,100.0
2018-06-22T02:57:08.389Z,100.0
2018-06-22T02:58:09.117Z,100.0
2018-06-22T02:59:09.834Z,100.0
2018-06-22T03:00:10.556Z,100.0
2018-06-22T03:01:11.329Z,100.0
2018-06-22T03:02:12.039Z,100.0
2018-06-22T03:03:12.770Z,100.0
2018-06-22T03:04:13.492Z,100.0
2018-06-22T03:05:14.208Z,100.0
2018-06-22T03:06:14.966Z,100.0
2018-06-22T03:07:15.684Z,100.0
2018-06-22T03:08:16.404Z,100.0
2018-06-22T03:09:17.121Z,100.0
2018-06-22T03:10:17.856Z,100.0
2018-06-22T03:11:18.986Z,100.0
2018-06-22T03:12:19.698Z,100.0
2018-06-22T03:13:20.419Z,100.0
2018-06-22T03:14:21.126Z,100.0
2018-06-22T03:15:21.854Z,100.0
2018-06-22T03:16:22.571Z,100.0
2018-06-22T03:17:23.540Z,100.0
2018-06-22T03:18:24.260Z,100.0
2018-06-22T03:19:24.976Z,100.0
2018-06-22T03:20:25.697Z,100.0
2018-06-22T03:21:26.417Z,100.0
2018-06-22T03:22:27.280Z,100.0
2018-06-22T03:23:28.002Z,100.0
2018-06-22T03:24:28.732Z,100.0
2018-06-22T03:25:29.460Z,100.0
2018-06-22T03:26:30.177Z,100.0
2018-06-22T03:27:30.901Z,100.0
2018-06-22T03:28:31.671Z,100.0
2018-06-22T03:29:32.387Z,100.0
2018-06-22T03:30:33.111Z,100.0
2018-06-22T03:31:33.840Z,100.0
2018-06-22T03:32:34.571Z,100.0
2018-06-22T03:33:35.340Z,100.0
2018-06-22T03:34:36.052Z,100.0
2018-06-22T03:35:36.784Z,100.0
2018-06-22T03:36:37.514Z,100.0
2018-06-22T03:37:38.246Z,100.0
2018-06-22T03:38:39.055Z,100.0
2018-06-22T03:39:39.773Z,100.0
2018-06-22T03:40:40.491Z,100.0
2018-06-22T03:41:41.450Z,100.0
2018-06-22T03:42:42.176Z,100.0
2018-06-22T03:43:42.892Z,100.0
2018-06-22T03:44:43.663Z,100.0
2018-06-22T03:45:44.390Z,100.0
2018-06-22T03:46:45.115Z,100.0
2018-06-22T03:47:45.840Z,100.0
2018-06-22T03:48:46.564Z,100.0
2018-06-22T03:49:47.279Z,100.0
2018-06-22T03:50:47.994Z,100.0
2018-06-22T03:51:48.719Z,100.0
2018-06-22T03:52:49.443Z,100.0
2018-06-22T03:53:50.158Z,100.0
2018-06-22T03:54:50.973Z,100.0
2018-06-22T03:55:51.699Z,100.0
2018-06-22T03:56:52.491Z,100.0
2018-06-22T03:57:53.157Z,100.0
2018-06-22T03:58:53.876Z,100.0
2018-06-22T03:59:54.644Z,100.0
2018-06-22T04:00:55.362Z,100.0
2018-06-22T04:01:56.083Z,100.0
2018-06-22T04:02:56.809Z,100.0
2018-06-22T04:03:57.533Z,100.0
2018-06-22T04:04:58.255Z,100.0
2018-06-22T04:05:58.969Z,100.0
2018-06-22T04:06:59.690Z,100.0
2018-06-22T04:08:00.424Z,100.0
2018-06-22T04:09:01.165Z,100.0
2018-06-22T04:10:01.860Z,100.0
2018-06-22T04:11:02.579Z,100.0
2018-06-22T04:12:03.306Z,100.0
2018-06-22T04:13:04.278Z,100.0
2018-06-22T04:14:05.000Z,100.0
2018-06-22T04:15:05.714Z,100.0
2018-06-22T04:16:06.427Z,100.0
2018-06-22T04:17:07.145Z,100.0
2018-06-22T04:18:07.869Z,100.0
2018-06-22T04:19:08.594Z,100.0
2018-06-22T04:20:09.318Z,100.0
2018-06-22T04:21:10.046Z,100.0
2018-06-22T04:22:10.768Z,100.0
2018-06-22T04:23:11.484Z,100.0
2018-06-22T04:24:12.208Z,100.0
2018-06-22T04:25:12.926Z,100.0
2018-06-22T04:26:13.893Z,100.0
2018-06-22T04:27:14.609Z,100.0
2018-06-22T04:28:15.329Z,100.0
2018-06-22T04:29:16.050Z,100.0
2018-06-22T04:30:16.777Z,100.0
2018-06-22T04:31:17.496Z,100.0
2018-06-22T04:32:18.453Z,100.0
2018-06-22T04:33:19.175Z,100.0
2018-06-22T04:34:19.894Z,100.0
2018-06-22T04:35:20.613Z,100.0
2018-06-22T04:36:21.342Z,100.0
2018-06-22T04:37:22.066Z,100.0
2018-06-22T04:38:23.266Z,100.0
2018-06-22T04:39:23.991Z,100.0
2018-06-22T04:40:24.727Z,100.0
2018-06-22T04:41:25.444Z,100.0
2018-06-22T04:42:26.165Z,100.0
2018-06-22T04:43:26.882Z,100.0
2018-06-22T04:44:27.608Z,100.0
2018-06-22T04:45:28.335Z,100.0
2018-06-22T04:46:29.069Z,100.0
2018-06-22T04:47:29.800Z,100.0
2018-06-22T04:48:30.520Z,100.0
2018-06-22T04:49:31.252Z,100.0
2018-06-22T04:50:31.966Z,100.0
2018-06-22T04:51:32.685Z,100.0
2018-06-22T04:52:33.410Z,100.0
2018-06-22T04:53:34.129Z,100.0
2018-06-22T04:54:34.898Z,100.0
2018-06-22T04:55:35.618Z,100.0
2018-06-22T04:56:36.334Z,100.0
2018-06-22T04:57:37.068Z,100.0
2018-06-22T04:58:37.790Z,100.0
2018-06-22T04:59:38.755Z,100.0
2018-06-22T05:00:39.475Z,100.0
2018-06-22T05:01:40.232Z,100.0
2018-06-22T05:02:41.029Z,100.0
2018-06-22T05:04:43.534Z,100.0
2018-06-22T05:05:44.268Z,100.0
2018-06-22T05:06:45.067Z,100.0
2018-06-22T05:07:46.061Z,100.0
2018-06-22T05:08:46.782Z,100.0
2018-06-22T05:10:50.997Z,100.0
2018-06-22T05:13:07.223Z,100.0
2018-06-22T05:14:08.017Z,100.0
2018-06-22T05:15:08.737Z,100.0
2018-06-22T05:16:09.496Z,100.0
2018-06-22T05:19:41.302Z,100.0
2018-06-22T05:20:42.513Z,100.0
2018-06-22T05:22:58.754Z,100.0
2018-06-22T05:23:59.510Z,100.0
2018-06-22T05:25:00.274Z,100.0
2018-06-22T05:26:43.700Z,100.0
2018-06-22T05:28:59.989Z,100.0
2018-06-22T05:30:00.732Z,100.0
2018-06-22T05:31:02.743Z,100.0
2018-06-22T05:32:03.542Z,100.0
2018-06-22T05:33:04.320Z,100.0
2018-06-22T05:34:05.098Z,100.0
2018-06-22T05:35:05.854Z,100.0
2018-06-22T05:37:22.561Z,100.0
2018-06-22T05:38:23.479Z,100.0
2018-06-22T05:39:24.706Z,100.0
2018-06-22T05:40:25.423Z,100.0
2018-06-22T05:41:26.809Z,100.0
2018-06-22T05:42:27.494Z,100.0
2018-06-22T05:43:28.219Z,100.0
2018-06-22T05:44:29.012Z,100.0
2018-06-22T05:45:30.060Z,100.0
2018-06-22T05:46:31.094Z,100.0
2018-06-22T05:47:32.268Z,100.0
2018-06-22T05:49:16.260Z,100.0
2018-06-22T05:50:17.110Z,100.0
2018-06-22T05:51:18.195Z,100.0
2018-06-22T05:52:18.932Z,100.0
2018-06-22T05:53:19.660Z,100.0
2018-06-22T05:55:22.307Z,100.0
2018-06-22T05:56:23.106Z,100.0
2018-06-22T05:57:23.875Z,100.0
2018-06-22T05:58:24.649Z,100.0
2018-06-22T06:01:10.154Z,100.0
2018-06-22T06:02:11.273Z,100.0
2018-06-22T06:03:12.121Z,100.0
2018-06-22T06:05:14.639Z,100.0
2018-06-22T06:07:17.379Z,100.0
2018-06-22T06:09:00.824Z,100.0
2018-06-22T06:10:02.014Z,100.0
2018-06-22T06:11:05.827Z,100.0
2018-06-22T06:12:07.836Z,100.0
2018-06-22T06:13:08.634Z,100.0
2018-06-22T06:15:11.553Z,100.0
2018-06-22T06:16:12.341Z,100.0
2018-06-22T06:19:44.219Z,100.0
2018-06-22T06:20:45.081Z,100.0
2018-06-22T06:21:45.898Z,100.0
2018-06-22T06:22:46.618Z,100.0
2018-06-22T06:23:47.384Z,100.0
2018-06-22T06:24:48.370Z,100.0
2018-06-22T06:26:31.851Z,100.0
2018-06-22T06:28:34.375Z,100.0
2018-06-22T06:31:58.675Z,100.0
2018-06-22T06:33:50.751Z,100.0
2018-06-22T06:34:51.544Z,100.0
2018-06-22T06:35:52.280Z,100.0
2018-06-22T06:36:53.046Z,100.0
2018-06-22T06:37:53.830Z,100.0
2018-06-22T06:38:54.631Z,100.0
2018-06-22T06:39:55.417Z,100.0
2018-06-22T06:42:11.692Z,100.0
2018-06-22T06:45:00.911Z,100.0
2018-06-22T06:46:01.824Z,100.0
2018-06-22T06:47:02.555Z,100.0
2018-06-22T06:48:03.281Z,100.0
2018-06-22T06:49:03.996Z,100.0
2018-06-22T06:50:04.969Z,100.0
2018-06-22T06:51:05.696Z,100.0
2018-06-22T06:53:21.968Z,100.0
2018-06-22T06:54:22.770Z,100.0
2018-06-22T06:55:23.485Z,100.0
2018-06-22T06:56:24.214Z,100.0
2018-06-22T06:57:24.945Z,100.0
2018-06-22T06:58:25.668Z,100.0
2018-06-22T06:59:26.399Z,100.0
2018-06-22T07:00:27.122Z,100.0
2018-06-22T07:01:28.002Z,100.0
2018-06-22T07:02:28.817Z,100.0
2018-06-22T07:03:29.567Z,100.0
2018-06-22T07:04:30.673Z,100.0
2018-06-22T07:05:31.472Z,100.0
2018-06-22T07:06:32.204Z,100.0
2018-06-22T07:07:32.930Z,100.0
2018-06-22T07:08:33.684Z,100.0
2018-06-22T07:09:34.388Z,100.0
2018-06-22T07:10:35.116Z,100.0
2018-06-22T07:11:35.847Z,100.0
2018-06-22T07:12:36.830Z,100.0
2018-06-22T07:13:37.553Z,100.0
2018-06-22T07:14:38.521Z,100.0
2018-06-22T07:15:39.266Z,100.0
2018-06-22T07:16:40.044Z,100.0
2018-06-22T07:17:40.780Z,100.0
2018-06-22T07:18:41.513Z,100.0
2018-06-22T07:19:42.243Z,100.0
2018-06-22T07:20:42.955Z,100.0
2018-06-22T07:21:43.681Z,100.0
2018-06-22T07:22:44.413Z,100.0
2018-06-22T07:23:45.135Z,100.0
2018-06-22T07:24:46.166Z,100.0
2018-06-22T07:25:46.898Z,100.0
2018-06-22T07:26:47.629Z,100.0
2018-06-22T07:27:48.604Z,100.0
2018-06-22T07:28:49.340Z,100.0
2018-06-22T07:29:50.063Z,100.0
2018-06-22T07:30:50.800Z,100.0
2018-06-22T07:31:51.527Z,100.0
2018-06-22T07:32:52.494Z,100.0
2018-06-22T07:33:53.227Z,100.0
2018-06-22T07:34:53.946Z,100.0
2018-06-22T07:35:54.731Z,100.0
2018-06-22T07:36:55.454Z,100.0
2018-06-22T07:37:56.173Z,100.0
2018-06-22T07:38:56.900Z,100.0
2018-06-22T07:39:57.866Z,100.0
2018-06-22T07:40:58.749Z,100.0
2018-06-22T07:41:59.464Z,100.0
2018-06-22T07:43:00.195Z,100.0
2018-06-22T07:45:16.456Z,100.0
2018-06-22T07:46:20.241Z,100.0
2018-06-22T07:47:21.214Z,100.0
2018-06-22T07:48:21.952Z,100.0
2018-06-22T07:49:22.655Z,100.0
2018-06-22T07:50:23.380Z,100.0
2018-06-22T07:51:24.108Z,100.0
2018-06-22T07:52:24.830Z,100.0
2018-06-22T07:53:25.554Z,100.0
2018-06-22T07:54:26.281Z,100.0
2018-06-22T07:55:27.011Z,100.0
2018-06-22T07:56:27.739Z,100.0
2018-06-22T07:58:43.998Z,100.0
2018-06-22T07:59:44.732Z,100.0
2018-06-22T08:00:45.464Z,100.0
2018-06-22T08:01:46.266Z,100.0
2018-06-22T08:02:46.987Z,100.0
2018-06-22T08:03:47.729Z,100.0
2018-06-22T08:04:48.488Z,100.0
2018-06-22T08:05:49.283Z,100.0
2018-06-22T08:06:50.006Z,100.0
2018-06-22T08:07:50.772Z,100.0
2018-06-22T08:08:51.555Z,100.0
2018-06-22T08:09:52.335Z,100.0
2018-06-22T08:10:53.051Z,100.0
2018-06-22T08:12:36.642Z,100.0
2018-06-22T08:13:37.428Z,100.0
2018-06-22T08:14:38.168Z,100.0
2018-06-22T08:15:38.889Z,100.0
2018-06-22T08:16:39.625Z,100.0
2018-06-22T08:18:55.881Z,100.0
2018-06-22T08:19:56.621Z,100.0
2018-06-22T08:20:57.341Z,100.0
2018-06-22T08:21:58.063Z,100.0
2018-06-22T08:22:59.105Z,100.0
2018-06-22T08:23:59.828Z,100.0
2018-06-22T08:25:00.793Z,100.0
2018-06-22T08:26:01.520Z,100.0
2018-06-22T08:27:02.260Z,100.0
2018-06-22T08:29:18.561Z,100.0
2018-06-22T08:30:19.301Z,100.0
2018-06-22T08:32:35.611Z,100.0
2018-06-22T08:33:36.335Z,100.0
2018-06-22T08:34:37.067Z,100.0
2018-06-22T08:35:37.908Z,100.0
2018-06-22T08:37:54.220Z,100.0
2018-06-22T08:38:55.005Z,100.0
2018-06-22T08:39:56.061Z,100.0
2018-06-22T08:40:56.837Z,100.0
2018-06-22T08:41:57.651Z,100.0
2018-06-22T08:42:58.396Z,100.0
2018-06-22T08:43:59.183Z,100.0
2018-06-22T08:44:59.912Z,100.0
2018-06-22T08:46:00.644Z,100.0
2018-06-22T08:47:01.633Z,100.0
2018-06-22T08:48:02.369Z,100.0
2018-06-22T08:49:03.400Z,100.0
2018-06-22T08:50:04.090Z,100.0
2018-06-22T08:51:05.069Z,100.0
2018-06-22T08:52:05.805Z,100.0
2018-06-22T08:53:06.525Z,99.4
2018-06-22T08:54:07.439Z,100.0
2018-06-22T08:55:08.235Z,97.8
2018-06-22T08:56:08.961Z,96.2
2018-06-22T08:57:09.751Z,90.3
2018-06-22T08:58:10.528Z,90.5
2018-06-22T08:59:11.258Z,90.0
2018-06-22T09:00:11.994Z,91.4
2018-06-22T09:01:12.739Z,93.1
2018-06-22T09:02:13.539Z,93.6
2018-06-22T09:03:14.277Z,96.0
2018-06-22T09:04:14.998Z,95.1
2018-06-22T09:05:15.728Z,94.7
2018-06-22T09:06:16.461Z,95.6
2018-06-22T09:07:17.192Z,96.6
2018-06-22T09:08:17.969Z,92.4
2018-06-22T09:09:18.649Z,92.4
2018-06-22T09:10:19.624Z,93.2
2018-06-22T09:11:20.346Z,93.9
2018-06-22T09:12:21.081Z,92.5
2018-06-22T09:13:22.063Z,94.5
2018-06-22T09:14:22.809Z,94.6
2018-06-22T09:15:23.525Z,95.9
2018-06-22T09:16:24.248Z,97.3
2018-06-22T09:17:24.979Z,96.7
2018-06-22T09:18:25.715Z,96.1
2018-06-22T09:19:26.437Z,96.1
2018-06-22T09:20:27.155Z,93.8
2018-06-22T09:21:27.887Z,92.9
2018-06-22T09:22:28.626Z,91.0
2018-06-22T09:23:29.348Z,89.4
2018-06-22T09:24:30.317Z,88.3
2018-06-22T09:25:31.050Z,88.9
2018-06-22T09:26:31.790Z,89.8
2018-06-22T09:27:32.515Z,91.7
2018-06-22T09:28:33.256Z,89.8
2018-06-22T09:29:33.989Z,88.2
2018-06-22T09:30:34.721Z,87.1
2018-06-22T09:31:35.450Z,87.6
2018-06-22T09:32:36.173Z,89.7
2018-06-22T09:33:37.010Z,92.1
2018-06-22T09:34:37.746Z,92.0
2018-06-22T09:35:38.480Z,93.0
2018-06-22T09:36:39.203Z,93.3
2018-06-22T09:37:39.907Z,93.3
2018-06-22T09:38:40.686Z,94.1
2018-06-22T09:39:41.406Z,95.5
2018-06-22T09:40:42.130Z,97.6
2018-06-22T09:41:42.864Z,100.0
2018-06-22T09:42:43.627Z,100.0
2018-06-22T09:43:44.357Z,100.0
2018-06-22T09:44:45.087Z,100.0
2018-06-22T09:45:45.812Z,100.0
2018-06-22T09:46:46.555Z,100.0
2018-06-22T09:47:47.265Z,100.0
2018-06-22T09:48:48.107Z,100.0
2018-06-22T09:51:04.391Z,100.0
2018-06-22T09:52:05.130Z,100.0
2018-06-22T09:53:05.860Z,100.0
2018-06-22T09:54:06.821Z,100.0
2018-06-22T09:55:07.876Z,100.0
2018-06-22T09:56:08.588Z,100.0
2018-06-22T09:57:09.374Z,100.0
2018-06-22T09:58:10.116Z,100.0
2018-06-22T09:59:10.843Z,100.0
2018-06-22T10:00:11.929Z,100.0
2018-06-22T10:01:12.677Z,100.0
2018-06-22T10:02:13.403Z,100.0
2018-06-22T10:03:14.126Z,100.0
2018-06-22T10:04:14.847Z,100.0
2018-06-22T10:05:15.682Z,100.0
2018-06-22T10:06:16.409Z,100.0
2018-06-22T10:07:17.139Z,100.0
2018-06-22T10:08:17.906Z,100.0
2018-06-22T10:09:18.632Z,100.0
2018-06-22T10:10:19.356Z,100.0
2018-06-22T10:11:20.142Z,100.0
2018-06-22T10:12:21.161Z,100.0
2018-06-22T10:13:21.901Z,100.0
2018-06-22T10:14:22.619Z,100.0
2018-06-22T10:15:23.363Z,100.0
2018-06-22T10:16:24.088Z,100.0
2018-06-22T10:17:24.822Z,100.0
2018-06-22T10:18:25.552Z,100.0
2018-06-22T10:19:26.290Z,100.0
2018-06-22T10:20:27.023Z,95.2
2018-06-22T10:21:27.744Z,94.6
2018-06-22T10:22:28.482Z,97.0
2018-06-22T10:23:29.877Z,95.6
2018-06-22T10:24:30.623Z,94.3
2018-06-22T10:25:31.345Z,92.2
2018-06-22T10:26:32.121Z,92.2
2018-06-22T10:27:32.856Z,93.5
2018-06-22T10:28:33.585Z,96.4
2018-06-22T10:29:34.321Z,91.8
2018-06-22T10:30:35.053Z,89.5
2018-06-22T10:31:35.796Z,88.2
2018-06-22T10:32:37.000Z,90.3
2018-06-22T10:33:37.720Z,88.1
2018-06-22T10:34:38.448Z,87.9
2018-06-22T10:35:39.186Z,84.1
2018-06-22T10:36:40.368Z,84.7
2018-06-22T10:37:41.083Z,88.4
2018-06-22T10:38:41.830Z,88.5
2018-06-22T10:39:42.571Z,86.8
2018-06-22T10:40:43.300Z,87.1
2018-06-22T10:41:44.027Z,88.7
2018-06-22T10:42:44.782Z,90.5
2018-06-22T10:43:45.502Z,89.2
2018-06-22T10:44:46.230Z,89.4
2018-06-22T10:45:46.980Z,89.0
2018-06-22T10:46:47.679Z,89.4
2018-06-22T10:47:48.415Z,90.8
2018-06-22T10:48:49.148Z,90.0
2018-06-22T10:49:49.880Z,89.7
2018-06-22T10:50:50.604Z,90.2
2018-06-22T10:51:51.324Z,92.5
2018-06-22T10:52:52.055Z,91.9
2018-06-22T10:53:52.833Z,93.4
2018-06-22T10:54:53.562Z,94.4
2018-06-22T10:55:54.612Z,94.6
2018-06-22T10:56:55.328Z,96.1
2018-06-22T10:57:56.055Z,98.1
2018-06-22T10:58:56.791Z,99.5
2018-06-22T10:59:57.593Z,100.0
2018-06-22T11:00:58.390Z,100.0
2018-06-22T11:01:59.132Z,100.0
2018-06-22T11:02:59.883Z,100.0
2018-06-22T11:04:00.611Z,100.0
2018-06-22T11:05:01.595Z,100.0
2018-06-22T11:06:02.412Z,100.0
2018-06-22T11:07:03.145Z,100.0
2018-06-22T11:08:03.879Z,100.0
2018-06-22T11:09:04.867Z,100.0
2018-06-22T11:10:05.596Z,100.0
2018-06-22T11:11:06.386Z,100.0
2018-06-22T11:12:07.118Z,100.0
2018-06-22T11:13:07.837Z,100.0
2018-06-22T11:14:08.574Z,100.0
2018-06-22T11:15:09.301Z,100.0
2018-06-22T11:16:10.127Z,100.0
2018-06-22T11:17:10.929Z,99.4
2018-06-22T11:18:11.601Z,99.4
2018-06-22T11:19:12.334Z,98.3
2018-06-22T11:20:13.052Z,99.2
2018-06-22T11:21:13.916Z,97.1
2018-06-22T11:23:30.213Z,94.3
2018-06-22T11:24:30.953Z,91.9
2018-06-22T11:25:31.692Z,91.3
2018-06-22T11:26:32.521Z,92.6
2018-06-22T11:27:33.250Z,93.6
2018-06-22T11:28:33.984Z,91.3
2018-06-22T11:29:34.979Z,90.5
2018-06-22T11:30:35.698Z,90.6
2018-06-22T11:31:36.431Z,88.5
2018-06-22T11:32:37.147Z,88.1
2018-06-22T11:33:37.883Z,86.5
2018-06-22T11:34:38.620Z,86.2
2018-06-22T11:35:39.434Z,85.5
2018-06-22T11:36:40.124Z,85.4
2018-06-22T11:37:40.858Z,86.4
2018-06-22T11:38:41.594Z,86.4
2018-06-22T11:39:42.319Z,87.7
2018-06-22T11:40:43.062Z,85.4
2018-06-22T11:41:43.795Z,84.9
2018-06-22T11:42:44.524Z,80.7
2018-06-22T11:43:45.507Z,80.4
2018-06-22T11:44:46.245Z,79.5
2018-06-22T11:45:46.995Z,77.6
2018-06-22T11:46:47.716Z,78.0
2018-06-22T11:47:48.444Z,79.9
2018-06-22T11:48:49.169Z,76.2
2018-06-22T11:49:49.889Z,77.1
2018-06-22T11:50:50.636Z,75.5
2018-06-22T11:51:51.355Z,77.9
2018-06-22T11:52:52.091Z,79.2
2018-06-22T11:53:52.818Z,83.1
2018-06-22T11:54:53.552Z,87.2
2018-06-22T11:55:54.629Z,90.9
2018-06-22T11:56:55.362Z,92.3
2018-06-22T11:57:56.093Z,94.1
2018-06-22T11:58:56.823Z,96.1
2018-06-22T11:59:57.547Z,97.1
2018-06-22T12:00:58.331Z,96.6
2018-06-22T12:01:59.052Z,100.0
2018-06-22T12:02:59.792Z,100.0
2018-06-22T12:04:00.532Z,100.0
2018-06-22T12:05:01.335Z,100.0
2018-06-22T12:06:02.065Z,97.5
2018-06-22T12:07:02.810Z,95.9
2018-06-22T12:08:03.542Z,93.6
2018-06-22T12:09:04.523Z,93.0
2018-06-22T12:10:05.276Z,91.4
2018-06-22T12:11:06.049Z,92.3
2018-06-22T12:12:07.028Z,89.2
2018-06-22T12:13:07.765Z,90.6
2018-06-22T12:14:08.509Z,90.2
2018-06-22T12:15:09.247Z,89.6
2018-06-22T12:16:09.973Z,85.7
2018-06-22T12:17:10.708Z,86.7
2018-06-22T12:18:11.433Z,87.0
2018-06-22T12:19:12.249Z,88.0
2018-06-22T12:20:12.899Z,88.1
2018-06-22T12:21:13.638Z,90.4
2018-06-22T12:22:14.375Z,91.3
2018-06-22T12:23:15.100Z,89.4
2018-06-22T12:24:15.826Z,88.1
2018-06-22T12:25:16.557Z,88.5
2018-06-22T12:26:17.290Z,89.7
2018-06-22T12:27:18.019Z,91.9
2018-06-22T12:28:18.844Z,93.4
2018-06-22T12:29:19.582Z,95.0
2018-06-22T12:32:51.423Z,93.4
2018-06-22T12:33:52.151Z,91.7
2018-06-22T12:34:52.881Z,92.2
2018-06-22T12:35:53.857Z,94.4
2018-06-22T12:36:54.588Z,95.0
2018-06-22T12:37:55.334Z,96.2
2018-06-22T12:38:56.057Z,95.7
2018-06-22T12:39:56.779Z,96.6
2018-06-22T12:40:57.503Z,94.6
2018-06-22T12:41:58.242Z,94.6
2018-06-22T12:42:58.964Z,95.4
2018-06-22T12:43:59.692Z,97.5
2018-06-22T12:45:00.439Z,97.7
2018-06-22T12:46:01.151Z,98.1
2018-06-22T12:47:01.881Z,98.0
2018-06-22T12:48:02.623Z,97.4
2018-06-22T12:49:03.699Z,96.8
2018-06-22T12:50:04.438Z,96.0
2018-06-22T12:51:05.164Z,93.7
2018-06-22T12:52:05.889Z,93.8
2018-06-22T12:53:06.619Z,93.2
2018-06-22T12:54:07.358Z,92.9
2018-06-22T12:55:08.088Z,91.0
2018-06-22T12:56:08.815Z,88.5
2018-06-22T12:57:09.620Z,88.8
2018-06-22T12:58:10.360Z,85.6
2018-06-22T12:59:11.090Z,84.3
2018-06-22T13:00:11.812Z,83.2
2018-06-22T13:01:12.591Z,83.6
2018-06-22T13:02:13.324Z,82.9
2018-06-22T13:03:14.309Z,81.4
2018-06-22T13:04:15.058Z,80.4
2018-06-22T13:05:15.778Z,80.2
2018-06-22T13:06:16.506Z,82.2
2018-06-22T13:07:17.243Z,79.1
2018-06-22T13:08:17.970Z,78.9
2018-06-22T13:09:18.705Z,78.7
2018-06-22T13:10:19.428Z,78.7
2018-06-22T13:11:20.153Z,78.7
2018-06-22T13:12:20.992Z,78.3
2018-06-22T13:13:21.796Z,76.3
2018-06-22T13:14:22.524Z,72.5
2018-06-22T13:15:23.266Z,69.8
2018-06-22T13:16:23.990Z,71.2
2018-06-22T13:17:24.732Z,73.1
2018-06-22T13:18:25.713Z,72.4
2018-06-22T13:19:26.458Z,69.8
2018-06-22T13:20:27.183Z,73.1
2018-06-22T13:21:27.914Z,71.3
2018-06-22T13:22:28.647Z,72.8
2018-06-22T13:23:29.627Z,75.6
2018-06-22T13:24:30.369Z,76.0
2018-06-22T13:25:31.112Z,76.7
2018-06-22T13:26:32.099Z,75.3
2018-06-22T13:27:32.823Z,76.6
2018-06-22T13:28:33.551Z,76.7
2018-06-22T13:29:34.281Z,79.4
2018-06-22T13:30:35.021Z,79.8
2018-06-22T13:31:35.776Z,81.2
2018-06-22T13:32:36.496Z,81.7
2018-06-22T13:33:37.238Z,77.7
2018-06-22T13:34:38.018Z,76.6
2018-06-22T13:35:38.750Z,76.0
2018-06-22T13:36:39.486Z,77.5
2018-06-22T13:37:40.224Z,75.3
2018-06-22T13:38:40.956Z,74.5
2018-06-22T13:39:41.726Z,74.3
2018-06-22T13:40:42.476Z,73.7
2018-06-22T13:41:43.251Z,69.8
2018-06-22T13:43:59.539Z,67.2
2018-06-22T13:45:01.759Z,65.3
2018-06-22T13:46:03.136Z,65.9
2018-06-22T13:47:03.977Z,64.1
2018-06-22T13:48:04.723Z,64.0
2018-06-22T13:49:05.463Z,60.5
2018-06-22T13:50:06.370Z,62.1
2018-06-22T13:51:07.285Z,60.9
2018-06-22T13:52:08.409Z,59.9
2018-06-22T13:53:09.165Z,61.5
2018-06-22T13:54:09.903Z,62.5
2018-06-22T13:55:10.683Z,64.3